createdAt,value
2023-04-22T00:02:45.796Z,3.85
2023-04-22T00:05:34.716Z,4.13
2023-04-22T00:08:23.330Z,3.30
2023-04-22T00:11:11.991Z,3.03
2023-04-22T00:14:00.627Z,3.53
2023-04-22T00:16:50.521Z,3.28
2023-04-22T00:19:39.466Z,3.03
2023-04-22T00:22:28.197Z,3.28
2023-04-22T00:25:17.415Z,3.20
2023-04-22T00:28:06.167Z,3.40
2023-04-22T00:30:54.848Z,2.50
2023-04-22T00:33:44.831Z,3.17
2023-04-22T00:36:33.542Z,3.08
2023-04-22T00:39:22.174Z,3.22
2023-04-22T00:42:11.458Z,3.30
2023-04-22T00:45:00.612Z,3.05
2023-04-22T00:47:50.142Z,3.25
2023-04-22T00:50:40.226Z,3.28
2023-04-22T00:53:28.787Z,3.58
2023-04-22T00:56:17.495Z,2.75
2023-04-22T00:59:06.431Z,3.40
2023-04-22T01:01:55.753Z,3.00
2023-04-22T01:04:44.590Z,3.20
2023-04-22T01:07:34.646Z,3.28
2023-04-22T01:10:23.317Z,3.55
2023-04-22T01:13:11.948Z,3.58
2023-04-22T01:16:02.671Z,3.60
2023-04-22T01:18:52.888Z,3.25
2023-04-22T01:21:41.912Z,3.08
2023-04-22T01:24:31.952Z,3.28
2023-04-22T01:27:21.026Z,3.22
2023-04-22T01:30:11.041Z,2.97
2023-04-22T01:32:59.916Z,2.95
2023-04-22T01:35:48.550Z,2.90
2023-04-22T01:38:37.216Z,3.40
2023-04-22T01:41:27.276Z,3.10
2023-04-22T01:44:16.362Z,2.90
2023-04-22T01:47:05.287Z,2.88
2023-04-22T01:49:53.913Z,2.95
2023-04-22T01:52:42.720Z,3.40
2023-04-22T01:55:35.992Z,2.70
2023-04-22T01:58:26.030Z,3.05
2023-04-22T02:01:15.093Z,3.00
2023-04-22T02:04:03.680Z,3.28
2023-04-22T02:06:52.270Z,3.03
2023-04-22T02:09:41.168Z,3.50
2023-04-22T02:12:30.319Z,2.53
2023-04-22T02:15:20.262Z,2.85
2023-04-22T02:18:10.176Z,3.35
2023-04-22T02:20:58.812Z,2.88
2023-04-22T02:23:47.509Z,3.30
2023-04-22T02:26:36.089Z,2.85
2023-04-22T02:29:25.148Z,2.90
2023-04-22T02:32:17.081Z,2.75
2023-04-22T02:35:06.440Z,2.75
2023-04-22T02:37:55.227Z,2.85
2023-04-22T02:40:43.963Z,2.90
2023-04-22T02:43:32.537Z,3.08
2023-04-22T02:46:21.228Z,2.72
2023-04-22T02:49:11.226Z,2.88
2023-04-22T02:51:59.983Z,3.38
2023-04-22T02:54:48.535Z,2.83
2023-04-22T02:57:37.154Z,2.72
2023-04-22T03:00:25.903Z,3.05
2023-04-22T03:03:15.116Z,3.10
2023-04-22T03:06:07.510Z,2.75
2023-04-22T03:08:56.433Z,2.88
2023-04-22T03:11:45.127Z,3.05
2023-04-22T03:14:33.676Z,3.03
2023-04-22T03:17:22.471Z,2.97
2023-04-22T03:20:12.282Z,2.80
2023-04-22T03:23:02.178Z,3.05
2023-04-22T03:25:50.994Z,3.00
2023-04-22T03:28:39.553Z,2.85
2023-04-22T03:31:28.361Z,2.70
2023-04-22T03:34:17.410Z,2.42
2023-04-22T03:37:06.025Z,2.80
2023-04-22T03:39:56.363Z,3.38
2023-04-22T03:42:45.052Z,2.85
2023-04-22T03:45:33.811Z,2.90
2023-04-22T03:48:22.464Z,3.13
2023-04-22T03:51:11.201Z,2.97
2023-04-22T03:53:59.752Z,3.00
2023-04-22T03:56:49.718Z,2.83
2023-04-22T03:59:38.604Z,2.92
2023-04-22T04:02:27.432Z,3.28
2023-04-22T04:05:16.249Z,3.40
2023-04-22T04:08:05.094Z,3.00
2023-04-22T04:10:53.795Z,2.70
2023-04-22T04:13:43.737Z,2.63
2023-04-22T04:16:32.443Z,2.80
2023-04-22T04:19:21.506Z,3.00
2023-04-22T04:22:10.644Z,2.47
2023-04-22T04:24:59.287Z,2.67
2023-04-22T04:27:47.864Z,2.75
2023-04-22T04:30:37.810Z,2.67
2023-04-22T04:33:27.593Z,3.15
2023-04-22T04:36:16.149Z,3.30
2023-04-22T04:39:04.983Z,2.60
2023-04-22T04:41:55.208Z,2.63
2023-04-22T04:44:43.919Z,3.22
2023-04-22T04:47:34.133Z,3.08
2023-04-22T04:50:23.017Z,2.40
2023-04-22T04:53:11.935Z,2.72
2023-04-22T04:56:00.459Z,3.38
2023-04-22T04:58:49.172Z,2.65
2023-04-22T05:01:37.789Z,2.60
2023-04-22T05:04:28.211Z,2.92
2023-04-22T05:07:16.935Z,2.85
2023-04-22T05:10:06.455Z,2.72
2023-04-22T05:12:55.065Z,2.72
2023-04-22T05:15:43.743Z,2.72
2023-04-22T05:18:32.353Z,3.22
2023-04-22T05:21:22.427Z,3.53
2023-04-22T05:24:11.119Z,2.90
2023-04-22T05:26:59.900Z,3.03
2023-04-22T05:29:48.487Z,3.35
2023-04-22T05:32:37.157Z,2.95
2023-04-22T05:35:25.955Z,3.33
2023-04-22T05:38:16.233Z,2.90
2023-04-22T05:41:04.876Z,2.80
2023-04-22T05:43:54.050Z,2.90
2023-04-22T05:46:42.658Z,3.47
2023-04-22T05:49:31.259Z,2.78
2023-04-22T05:52:19.838Z,2.58
2023-04-22T05:55:10.405Z,3.50
2023-04-22T05:57:59.128Z,2.92
2023-04-22T06:00:47.777Z,2.95
2023-04-22T06:03:36.603Z,2.38
2023-04-22T06:06:26.025Z,2.78
2023-04-22T06:09:14.632Z,2.63
2023-04-22T06:12:04.598Z,2.58
2023-04-22T06:14:53.268Z,3.08
2023-04-22T06:17:42.060Z,2.83
2023-04-22T06:20:32.634Z,3.25
2023-04-22T06:23:21.668Z,3.08
2023-04-22T06:26:10.486Z,3.15
2023-04-22T06:29:00.622Z,2.90
2023-04-22T06:31:49.349Z,2.83
2023-04-22T06:34:38.699Z,3.00
2023-04-22T06:37:27.538Z,2.65
2023-04-22T06:40:16.841Z,2.42
2023-04-22T06:43:05.720Z,2.60
2023-04-22T06:45:55.692Z,2.42
2023-04-22T06:48:44.449Z,3.10
2023-04-22T06:51:33.027Z,3.00
2023-04-22T06:54:21.655Z,2.40
2023-04-22T06:57:10.337Z,2.70
2023-04-22T06:59:58.958Z,2.90
2023-04-22T07:02:49.023Z,3.13
2023-04-22T07:05:39.568Z,2.78
2023-04-22T07:08:28.511Z,2.30
2023-04-22T07:11:18.603Z,2.45
2023-04-22T07:14:07.252Z,2.97
2023-04-22T07:16:55.930Z,2.47
2023-04-22T07:19:45.936Z,2.60
2023-04-22T07:22:34.606Z,2.40
2023-04-22T07:25:23.598Z,2.42
2023-04-22T07:28:12.358Z,2.45
2023-04-22T07:31:00.933Z,2.30
2023-04-22T07:33:49.527Z,2.75
2023-04-22T07:36:39.698Z,2.40
2023-04-22T07:39:28.538Z,2.50
2023-04-22T07:42:17.237Z,2.78
2023-04-22T07:45:06.842Z,2.40
2023-04-22T07:47:55.523Z,2.47
2023-04-22T07:50:44.158Z,2.40
2023-04-22T07:53:34.446Z,2.30
2023-04-22T07:56:29.915Z,2.20
2023-04-22T07:59:18.587Z,2.05
2023-04-22T08:02:07.319Z,2.10
2023-04-22T08:04:56.045Z,2.70
2023-04-22T08:07:44.825Z,2.42
2023-04-22T08:10:35.065Z,2.95
2023-04-22T08:13:24.549Z,2.95
2023-04-22T08:16:33.671Z,2.92
2023-04-22T08:19:22.437Z,2.70
2023-04-22T08:22:13.690Z,2.95
2023-04-22T08:25:02.414Z,3.10
2023-04-22T08:27:52.766Z,3.08
2023-04-22T08:30:41.910Z,3.80
2023-04-22T08:33:31.234Z,3.50
2023-04-22T08:36:22.873Z,3.05
2023-04-22T08:39:12.466Z,2.55
2023-04-22T08:42:02.224Z,3.30
2023-04-22T08:44:52.824Z,3.30
2023-04-22T08:47:42.540Z,2.55
2023-04-22T08:50:32.902Z,2.90
2023-04-22T08:53:24.597Z,3.00
2023-04-22T08:56:14.483Z,2.95
2023-04-22T08:59:06.483Z,2.63
2023-04-22T09:01:58.406Z,2.85
2023-04-22T09:04:49.304Z,3.72
2023-04-22T09:07:41.304Z,3.20
2023-04-22T09:10:33.984Z,2.85
2023-04-22T09:13:24.606Z,3.17
2023-04-22T09:16:14.905Z,3.42
2023-04-22T09:19:05.890Z,3.08
2023-04-22T09:21:54.777Z,2.72
2023-04-22T09:24:47.257Z,2.75
2023-04-22T09:27:37.452Z,2.78
2023-04-22T09:30:29.715Z,2.75
2023-04-22T09:33:18.587Z,2.78
2023-04-22T09:36:11.909Z,3.17
2023-04-22T09:39:03.857Z,3.08
2023-04-22T09:41:56.686Z,3.20
2023-04-22T09:44:47.235Z,3.00
2023-04-22T09:47:37.514Z,2.78
2023-04-22T09:50:27.900Z,3.53
2023-04-22T09:53:19.756Z,2.70
2023-04-22T09:56:09.229Z,2.88
2023-04-22T09:58:57.936Z,2.83
2023-04-22T10:01:46.787Z,3.38
2023-04-22T10:04:35.428Z,3.85
2023-04-22T10:07:24.379Z,3.60
2023-04-22T10:10:14.945Z,3.55
2023-04-22T10:13:05.130Z,3.05
2023-04-22T10:15:55.115Z,3.22
2023-04-22T10:18:44.058Z,3.00
2023-04-22T10:21:33.982Z,2.72
2023-04-22T10:24:23.050Z,2.83
2023-04-22T10:27:13.211Z,3.33
2023-04-22T10:30:02.674Z,2.90
2023-04-22T10:32:51.284Z,2.25
2023-04-22T10:35:39.994Z,2.78
2023-04-22T10:38:28.637Z,1.77
2023-04-22T10:41:18.264Z,2.45
2023-04-22T10:44:09.566Z,3.03
2023-04-22T10:47:00.363Z,3.03
2023-04-22T10:49:51.126Z,2.45
2023-04-22T10:52:40.012Z,2.60
2023-04-22T10:55:52.588Z,2.17
2023-04-22T10:58:41.260Z,2.20
2023-04-22T11:01:31.313Z,2.05
2023-04-22T11:04:24.067Z,2.33
2023-04-22T11:07:16.183Z,2.28
2023-04-22T11:10:15.887Z,2.13
2023-04-22T11:13:07.158Z,1.90
2023-04-22T11:15:56.915Z,2.13
2023-04-22T11:18:48.962Z,1.83
2023-04-22T11:21:37.809Z,2.50
2023-04-22T11:24:26.422Z,2.42
2023-04-22T11:27:15.019Z,2.15
2023-04-22T11:30:03.994Z,1.83
2023-04-22T11:32:54.806Z,2.20
2023-04-22T11:35:45.296Z,2.10
2023-04-22T11:38:34.193Z,2.00
2023-04-22T11:41:23.655Z,2.13
2023-04-22T11:44:15.614Z,2.10
2023-04-22T11:47:04.217Z,1.75
2023-04-22T11:49:59.437Z,1.92
2023-04-22T11:52:52.956Z,2.08
2023-04-22T11:55:42.942Z,2.05
2023-04-22T11:58:31.760Z,2.50
2023-04-22T12:01:20.313Z,2.28
2023-04-22T12:04:12.760Z,1.88
2023-04-22T12:07:01.423Z,2.25
2023-04-22T12:09:55.389Z,2.38
2023-04-22T12:12:44.038Z,2.20
2023-04-22T12:15:43.830Z,2.50
2023-04-22T12:18:33.254Z,2.20
2023-04-22T12:21:23.707Z,2.30
2023-04-22T12:24:12.387Z,1.88
2023-04-22T12:27:03.405Z,2.45
2023-04-22T12:29:56.778Z,1.92
2023-04-22T12:32:45.891Z,2.95
2023-04-22T12:35:34.852Z,2.47
2023-04-22T12:38:23.450Z,2.47
2023-04-22T12:41:12.384Z,2.05
2023-04-22T12:44:02.419Z,1.92
2023-04-22T12:46:51.290Z,2.40
2023-04-22T12:49:40.437Z,2.13
2023-04-22T12:52:29.332Z,2.67
2023-04-22T12:55:18.062Z,2.45
2023-04-22T12:58:06.783Z,2.58
2023-04-22T13:00:56.759Z,2.13
2023-04-22T13:03:45.817Z,2.95
2023-04-22T13:06:34.644Z,2.75
2023-04-22T13:09:27.097Z,2.47
2023-04-22T13:12:15.826Z,2.33
2023-04-22T13:15:06.270Z,2.60
2023-04-22T13:17:56.450Z,2.75
2023-04-22T13:20:45.100Z,2.60
2023-04-22T13:23:33.853Z,2.80
2023-04-22T13:26:22.455Z,2.33
2023-04-22T13:29:14.160Z,2.60
2023-04-22T13:32:04.520Z,2.40
2023-04-22T13:34:55.116Z,2.65
2023-04-22T13:37:43.845Z,2.30
2023-04-22T13:40:32.559Z,2.47
2023-04-22T13:43:21.277Z,2.13
2023-04-22T13:46:09.922Z,2.33
2023-04-22T13:48:58.664Z,2.15
2023-04-22T13:51:48.670Z,2.38
2023-04-22T13:54:37.259Z,2.53
2023-04-22T13:57:26.141Z,2.50
2023-04-22T14:00:15.431Z,2.22
2023-04-22T14:03:04.209Z,2.15
2023-04-22T14:05:53.482Z,2.70
2023-04-22T14:08:43.742Z,1.88
2023-04-22T14:11:33.685Z,1.85
2023-04-22T14:14:22.308Z,2.58
2023-04-22T14:17:11.011Z,2.58
2023-04-22T14:19:59.644Z,2.65
2023-04-22T14:22:48.521Z,2.78
2023-04-22T14:25:38.913Z,2.65
2023-04-22T14:28:27.924Z,2.40
2023-04-22T14:31:16.586Z,2.65
2023-04-22T14:34:05.286Z,2.90
2023-04-22T14:36:56.792Z,3.05
2023-04-22T14:39:45.414Z,2.75
2023-04-22T14:42:35.573Z,2.42
2023-04-22T14:45:25.518Z,2.30
2023-04-22T14:48:14.235Z,2.90
2023-04-22T14:51:02.894Z,2.42
2023-04-22T14:53:51.575Z,3.00
2023-04-22T14:56:40.209Z,2.95
2023-04-22T14:59:30.360Z,3.00
2023-04-22T15:02:19.036Z,2.58
2023-04-22T15:05:08.161Z,2.78
2023-04-22T15:07:57.737Z,2.67
2023-04-22T15:10:46.352Z,2.58
2023-04-22T15:13:35.040Z,2.63
2023-04-22T15:16:25.188Z,2.60
2023-04-22T15:19:13.871Z,2.67
2023-04-22T15:22:02.539Z,2.33
2023-04-22T15:24:51.171Z,3.33
2023-04-22T15:27:40.709Z,3.67
2023-04-22T15:30:32.081Z,3.50
2023-04-22T15:33:22.027Z,3.05
2023-04-22T15:36:10.815Z,3.63
2023-04-22T15:38:59.614Z,3.17
2023-04-22T15:41:48.311Z,3.22
2023-04-22T15:44:38.119Z,3.05
2023-04-22T15:47:28.822Z,3.20
2023-04-22T15:50:19.317Z,2.70
2023-04-22T15:53:07.989Z,3.05
2023-04-22T15:55:56.740Z,2.95
2023-04-22T15:58:45.587Z,3.53
2023-04-22T16:01:34.556Z,3.53
2023-04-22T16:04:23.431Z,3.45
2023-04-22T16:07:13.729Z,3.35
2023-04-22T16:10:02.485Z,2.90
2023-04-22T16:12:51.902Z,3.47
2023-04-22T16:15:40.629Z,3.58
2023-04-22T16:18:29.414Z,3.58
2023-04-22T16:21:18.364Z,3.47
2023-04-22T16:24:08.849Z,4.03
2023-04-22T16:26:59.069Z,3.45
2023-04-22T16:29:47.819Z,4.05
2023-04-22T16:32:37.111Z,3.08
2023-04-22T16:35:25.721Z,3.50
2023-04-22T16:38:19.113Z,4.47
2023-04-22T16:41:11.440Z,3.65
2023-04-22T16:44:00.971Z,3.90
2023-04-22T16:46:49.620Z,3.75
2023-04-22T16:49:38.590Z,3.75
2023-04-22T16:52:27.525Z,5.13
2023-04-22T16:55:16.378Z,3.60
2023-04-22T16:58:06.484Z,3.88
2023-04-22T17:00:55.278Z,3.05
2023-04-22T17:03:44.034Z,3.92
2023-04-22T17:06:33.577Z,3.85
2023-04-22T17:09:22.187Z,3.45
2023-04-22T17:12:10.856Z,4.28
2023-04-22T17:15:00.986Z,3.67
2023-04-22T17:17:49.883Z,3.88
2023-04-22T17:20:39.148Z,3.30
2023-04-22T17:23:27.981Z,3.60
2023-04-22T17:26:16.666Z,3.90
2023-04-22T17:29:05.376Z,3.40
2023-04-22T17:31:55.476Z,3.60
2023-04-22T17:34:44.250Z,3.33
2023-04-22T17:37:32.984Z,3.92
2023-04-22T17:40:21.951Z,3.78
2023-04-22T17:43:10.591Z,3.20
2023-04-22T17:45:59.336Z,3.92
2023-04-22T17:48:49.530Z,3.72
2023-04-22T17:51:38.751Z,3.88
2023-04-22T17:54:27.469Z,4.15
2023-04-22T17:57:16.388Z,3.80
2023-04-22T18:00:05.699Z,4.60
2023-04-22T18:02:54.973Z,5.15
2023-04-22T18:05:45.099Z,5.20
2023-04-22T18:08:33.734Z,4.85
2023-04-22T18:11:22.424Z,4.97
2023-04-22T18:14:11.481Z,5.00
2023-04-22T18:17:00.332Z,5.13
2023-04-22T18:19:51.017Z,5.18
2023-04-22T18:22:41.354Z,4.85
2023-04-22T18:25:33.171Z,5.50
2023-04-22T18:28:21.968Z,5.60
2023-04-22T18:31:10.668Z,5.47
2023-04-22T18:33:59.432Z,5.70
2023-04-22T18:36:48.137Z,5.40
2023-04-22T18:39:39.595Z,5.10
2023-04-22T18:42:28.978Z,5.57
2023-04-22T18:45:17.790Z,5.80
2023-04-22T18:48:06.554Z,5.80
2023-04-22T18:50:55.411Z,6.40
2023-04-22T18:53:44.128Z,4.47
2023-04-22T18:56:34.418Z,5.20
2023-04-22T18:59:23.078Z,4.82
2023-04-22T19:02:14.060Z,4.78
2023-04-22T19:05:02.706Z,4.45
2023-04-22T19:07:51.267Z,5.03
2023-04-22T19:10:40.269Z,5.15
2023-04-22T19:13:30.523Z,4.60
2023-04-22T19:16:19.270Z,5.20
2023-04-22T19:19:08.102Z,4.90
2023-04-22T19:21:56.802Z,4.80
2023-04-22T19:24:45.881Z,4.72
2023-04-22T19:27:35.012Z,4.40
2023-04-22T19:30:26.487Z,4.07
2023-04-22T19:33:15.643Z,5.18
2023-04-22T19:36:06.212Z,4.30
2023-04-22T19:38:54.825Z,4.90
2023-04-22T19:41:43.503Z,4.72
2023-04-22T19:44:32.217Z,4.85
2023-04-22T19:47:22.661Z,5.03
2023-04-22T19:50:11.942Z,4.35
2023-04-22T19:53:04.345Z,4.38
2023-04-22T19:55:54.254Z,4.78
2023-04-22T19:58:44.426Z,4.80
2023-04-22T20:01:33.969Z,4.75
2023-04-22T20:04:25.070Z,3.95
2023-04-22T20:07:16.415Z,3.50
2023-04-22T20:10:08.350Z,4.05
2023-04-22T20:12:57.281Z,3.58
2023-04-22T20:15:46.309Z,3.55
2023-04-22T20:18:35.367Z,3.67
2023-04-22T20:21:25.762Z,3.83
2023-04-22T20:24:19.335Z,3.40
2023-04-22T20:27:08.644Z,3.30
2023-04-22T20:29:57.827Z,3.35
2023-04-22T20:32:46.715Z,3.25
2023-04-22T20:35:36.583Z,3.10
2023-04-22T20:38:30.968Z,2.65
2023-04-22T20:41:20.148Z,3.30
2023-04-22T20:44:08.948Z,2.70
2023-04-22T20:46:58.840Z,3.10
2023-04-22T20:49:47.485Z,3.38
2023-04-22T20:52:36.490Z,3.22
2023-04-22T20:55:26.531Z,3.10
2023-04-22T20:58:15.758Z,2.92
2023-04-22T21:01:04.405Z,2.55
2023-04-22T21:03:57.627Z,3.22
2023-04-22T21:06:46.703Z,3.13
2023-04-22T21:09:35.629Z,2.88
2023-04-22T21:12:27.258Z,2.50
2023-04-22T21:15:16.784Z,3.05
2023-04-22T21:18:07.344Z,2.28
2023-04-22T21:20:58.112Z,2.95
2023-04-22T21:23:47.408Z,2.75
2023-04-22T21:26:40.109Z,2.72
2023-04-22T21:29:31.213Z,2.20
2023-04-22T21:32:20.770Z,2.28
2023-04-22T21:35:10.268Z,2.15
2023-04-22T21:37:58.992Z,2.22
2023-04-22T21:40:50.301Z,2.15
2023-04-22T21:43:38.902Z,2.22
2023-04-22T21:46:28.888Z,2.38
2023-04-22T21:49:18.360Z,2.53
2023-04-22T21:52:07.006Z,2.17
2023-04-22T21:54:55.573Z,2.38
2023-04-22T21:57:44.252Z,2.53
2023-04-22T22:00:33.301Z,2.22
2023-04-22T22:03:23.340Z,1.92
2023-04-22T22:06:12.056Z,1.85
2023-04-22T22:09:00.997Z,1.75
2023-04-22T22:11:49.538Z,2.25
2023-04-22T22:14:39.119Z,1.90
2023-04-22T22:17:28.039Z,2.10
2023-04-22T22:20:20.331Z,2.03
2023-04-22T22:23:09.178Z,1.90
2023-04-22T22:25:57.801Z,1.80
2023-04-22T22:28:46.467Z,1.90
2023-04-22T22:31:35.151Z,1.85
2023-04-22T22:34:26.712Z,1.70
2023-04-22T22:37:16.765Z,1.85
2023-04-22T22:40:05.748Z,2.25
2023-04-22T22:42:54.492Z,5.35
2023-04-22T22:45:43.477Z,1.67
2023-04-22T22:48:32.711Z,1.58
2023-04-22T22:51:21.892Z,1.70
2023-04-22T22:54:12.111Z,1.33
2023-04-22T22:57:01.673Z,1.90
2023-04-22T22:59:50.642Z,1.60
2023-04-22T23:02:39.460Z,2.03
2023-04-22T23:05:29.072Z,1.92
2023-04-22T23:08:17.760Z,2.15
2023-04-22T23:11:07.770Z,1.38
2023-04-22T23:13:56.584Z,1.42
2023-04-22T23:16:45.320Z,1.70
2023-04-22T23:19:34.494Z,1.50
2023-04-22T23:22:23.775Z,1.55
2023-04-22T23:25:14.020Z,1.23
2023-04-22T23:28:05.089Z,1.17
2023-04-22T23:30:56.708Z,1.10
2023-04-22T23:33:46.780Z,1.52
2023-04-22T23:36:37.503Z,1.45
2023-04-22T23:39:26.266Z,1.33
2023-04-22T23:42:14.888Z,0.95
2023-04-22T23:45:05.256Z,1.42
2023-04-22T23:47:53.951Z,1.17
2023-04-22T23:50:42.745Z,1.10
2023-04-22T23:53:31.361Z,1.23
2023-04-22T23:56:22.900Z,1.05
2023-04-22T23:59:12.115Z,1.15
